createdAt,value
2023-02-03T00:01:49.545Z,100823.44
2023-02-03T00:04:16.154Z,100830.44
2023-02-03T00:06:43.273Z,100821.31
2023-02-03T00:09:10.234Z,100817.59
2023-02-03T00:11:37.354Z,100822.97
2023-02-03T00:14:05.372Z,100826.22
2023-02-03T00:16:31.988Z,100827.84
2023-02-03T00:18:58.523Z,100829.47
2023-02-03T00:21:24.992Z,100816.78
2023-02-03T00:23:51.892Z,100815.94
2023-02-03T00:26:18.534Z,100816.78
2023-02-03T00:28:45.800Z,100815.47
2023-02-03T00:31:21.588Z,100806.03
2023-02-03T00:33:53.055Z,100809.28
2023-02-03T00:36:19.554Z,100813.34
2023-02-03T00:38:46.142Z,100812.91
2023-02-03T00:41:12.584Z,100818.28
2023-02-03T00:43:39.082Z,100803.22
2023-02-03T00:46:05.786Z,100806.34
2023-02-03T00:48:32.277Z,100807.97
2023-02-03T00:50:58.775Z,100820.03
2023-02-03T00:53:25.362Z,100818.16
2023-02-03T00:55:52.151Z,100812.31
2023-02-03T00:58:18.895Z,100822.47
2023-02-03T01:00:45.571Z,100800.97
2023-02-03T01:03:12.073Z,100792.31
2023-02-03T01:05:38.631Z,100797.22
2023-02-03T01:08:05.328Z,100797.22
2023-02-03T01:10:31.865Z,100790.00
2023-02-03T01:12:58.356Z,100778.66
2023-02-03T01:15:24.877Z,100779.84
2023-02-03T01:17:51.349Z,100781.91
2023-02-03T01:20:18.104Z,100784.38
2023-02-03T01:22:44.615Z,100779.00
2023-02-03T01:25:11.264Z,100778.19
2023-02-03T01:27:37.961Z,100780.41
2023-02-03T01:30:05.073Z,100787.19
2023-02-03T01:32:31.542Z,100786.72
2023-02-03T01:34:57.995Z,100773.00
2023-02-03T01:37:24.531Z,100774.31
2023-02-03T01:39:50.998Z,100758.69
2023-02-03T01:42:17.510Z,100733.88
2023-02-03T01:44:47.664Z,100726.41
2023-02-03T01:47:22.963Z,100709.09
2023-02-03T01:49:56.532Z,100707.44
2023-02-03T01:52:23.716Z,100714.94
2023-02-03T01:54:52.089Z,100714.47
2023-02-03T01:57:24.792Z,100717.28
2023-02-03T01:59:53.947Z,100709.31
2023-02-03T02:02:20.866Z,100709.31
2023-02-03T02:05:20.327Z,100731.31
2023-02-03T02:07:48.648Z,100713.63
2023-02-03T02:10:15.211Z,100713.84
2023-02-03T02:12:42.163Z,100719.56
2023-02-03T02:15:09.871Z,100720.13
2023-02-03T02:17:36.422Z,100722.84
2023-02-03T02:20:39.989Z,100725.44
2023-02-03T02:23:25.299Z,100730.47
2023-02-03T02:26:03.881Z,100706.03
2023-02-03T02:28:55.636Z,100689.56
2023-02-03T02:31:56.153Z,100688.28
2023-02-03T02:34:42.650Z,100684.19
2023-02-03T02:37:24.570Z,100687.22
2023-02-03T02:39:58.900Z,100697.47
2023-02-03T02:42:46.695Z,100698.84
2023-02-03T02:45:22.579Z,100718.28
2023-02-03T02:47:50.800Z,100716.63
2023-02-03T02:53:03.868Z,100725.28
2023-02-03T02:55:34.202Z,100728.22
2023-02-03T02:58:14.083Z,100743.78
2023-02-03T03:00:41.397Z,100751.84
2023-02-03T03:03:15.180Z,100745.06
2023-02-03T03:05:43.489Z,100752.31
2023-02-03T03:08:12.449Z,100749.63
2023-02-03T03:10:41.852Z,100767.97
2023-02-03T03:13:13.416Z,100783.63
2023-02-03T03:15:42.272Z,100787.38
2023-02-03T03:18:17.903Z,100782.00
2023-02-03T03:20:49.957Z,100779.78
2023-02-03T03:23:20.245Z,100754.94
2023-02-03T03:25:51.799Z,100768.94
2023-02-03T03:28:28.382Z,100763.56
2023-02-03T03:30:55.129Z,100753.38
2023-02-03T03:33:22.917Z,100737.47
2023-02-03T03:35:58.020Z,100732.66
2023-02-03T03:38:39.676Z,100738.06
2023-02-03T03:41:13.777Z,100751.50
2023-02-03T03:43:44.961Z,100750.22
2023-02-03T03:46:20.947Z,100742.16
2023-02-03T03:48:54.911Z,100743.19
2023-02-03T03:51:24.214Z,100744.84
2023-02-03T03:53:53.630Z,100754.53
2023-02-03T03:56:29.245Z,100768.47
2023-02-03T03:58:58.507Z,100747.44
2023-02-03T04:01:26.420Z,100721.34
2023-02-03T04:03:58.419Z,100726.72
2023-02-03T04:06:24.977Z,100707.66
2023-02-03T04:08:51.485Z,100715.75
2023-02-03T04:11:38.068Z,100705.22
2023-02-03T04:14:04.890Z,100714.91
2023-02-03T04:16:31.403Z,100715.75
2023-02-03T04:18:57.949Z,100724.13
2023-02-03T04:21:24.496Z,100724.59
2023-02-03T04:23:52.235Z,100728.63
2023-02-03T04:26:18.746Z,100733.72
2023-02-03T04:28:45.341Z,100727.06
2023-02-03T04:31:12.000Z,100731.13
2023-02-03T04:33:38.702Z,100745.97
2023-02-03T04:36:05.499Z,100738.97
2023-02-03T04:38:33.232Z,100744.34
2023-02-03T04:40:59.727Z,100747.03
2023-02-03T04:43:26.264Z,100742.78
2023-02-03T04:45:52.764Z,100739.31
2023-02-03T04:48:19.271Z,100745.50
2023-02-03T04:50:45.769Z,100750.88
2023-02-03T04:53:12.977Z,100752.41
2023-02-03T04:55:40.512Z,100760.97
2023-02-03T04:58:06.974Z,100760.88
2023-02-03T05:00:33.448Z,100774.31
2023-02-03T05:02:59.937Z,100772.69
2023-02-03T05:05:26.473Z,100767.78
2023-02-03T05:07:52.996Z,100771.06
2023-02-03T05:10:19.573Z,100761.09
2023-02-03T05:12:46.029Z,100748.25
2023-02-03T05:15:12.599Z,100754.66
2023-02-03T05:17:40.214Z,100760.31
2023-02-03T05:20:07.915Z,100757.00
2023-02-03T05:22:35.648Z,100772.13
2023-02-03T05:25:03.203Z,100778.53
2023-02-03T05:27:29.743Z,100761.59
2023-02-03T05:29:56.495Z,100752.69
2023-02-03T05:32:23.043Z,100758.69
2023-02-03T05:34:49.523Z,100757.63
2023-02-03T05:37:15.996Z,100746.88
2023-02-03T05:39:42.514Z,100732.34
2023-02-03T05:42:08.999Z,100732.34
2023-02-03T05:44:35.655Z,100740.44
2023-02-03T05:47:02.154Z,100750.00
2023-02-03T05:49:28.693Z,100751.50
2023-02-03T05:51:56.017Z,100769.28
2023-02-03T05:54:22.992Z,100770.34
2023-02-03T05:56:49.442Z,100777.09
2023-02-03T05:59:15.966Z,100777.78
2023-02-03T06:01:42.576Z,100755.97
2023-02-03T06:04:09.359Z,100752.00
2023-02-03T06:06:36.753Z,100740.53
2023-02-03T06:09:06.625Z,100739.44
2023-02-03T06:11:33.563Z,100739.66
2023-02-03T06:14:00.867Z,100725.56
2023-02-03T06:16:28.879Z,100716.72
2023-02-03T06:19:00.780Z,100741.28
2023-02-03T06:21:28.125Z,100739.09
2023-02-03T06:23:55.956Z,100736.56
2023-02-03T06:26:22.655Z,100741.38
2023-02-03T06:28:49.182Z,100731.47
2023-02-03T06:31:15.791Z,100735.22
2023-02-03T06:33:42.582Z,100745.69
2023-02-03T06:36:09.424Z,100735.28
2023-02-03T06:38:35.919Z,100736.41
2023-02-03T06:41:02.447Z,100741.59
2023-02-03T06:43:29.023Z,100737.69
2023-02-03T06:45:55.579Z,100726.59
2023-02-03T06:48:22.102Z,100723.09
2023-02-03T06:50:48.937Z,100724.66
2023-02-03T06:53:15.598Z,100732.13
2023-02-03T06:55:42.352Z,100734.50
2023-02-03T06:58:09.073Z,100733.81
2023-02-03T07:00:35.686Z,100736.50
2023-02-03T07:03:02.925Z,100728.13
2023-02-03T07:05:29.746Z,100727.06
2023-02-03T07:07:56.260Z,100714.41
2023-02-03T07:10:22.884Z,100721.69
2023-02-03T07:12:50.911Z,100734.06
2023-02-03T07:15:18.055Z,100746.13
2023-02-03T07:17:46.912Z,100744.75
2023-02-03T07:20:13.389Z,100748.00
2023-02-03T07:22:42.400Z,100753.31
2023-02-03T07:25:08.860Z,100743.00
2023-02-03T07:27:35.312Z,100727.44
2023-02-03T07:30:01.899Z,100723.56
2023-02-03T07:32:28.375Z,100748.81
2023-02-03T07:34:54.848Z,100759.00
2023-02-03T07:37:21.394Z,100751.50
2023-02-03T07:39:47.866Z,100761.22
2023-02-03T07:42:14.371Z,100754.19
2023-02-03T07:44:41.041Z,100764.16
2023-02-03T07:47:07.527Z,100784.25
2023-02-03T07:49:34.053Z,100793.47
2023-02-03T07:52:00.781Z,100781.91
2023-02-03T07:54:27.383Z,100800.53
2023-02-03T07:56:54.478Z,100802.16
2023-02-03T07:59:21.380Z,100800.88
2023-02-03T08:01:47.968Z,100797.94
2023-02-03T08:04:16.553Z,100821.31
2023-02-03T08:06:43.906Z,100843.88
2023-02-03T08:09:10.482Z,100826.78
2023-02-03T08:11:36.972Z,100805.41
2023-02-03T08:14:03.569Z,100801.94
2023-02-03T08:16:30.393Z,100816.16
2023-02-03T08:18:57.819Z,100811.97
2023-02-03T08:21:24.385Z,100807.75
2023-02-03T08:23:50.894Z,100809.38
2023-02-03T08:26:17.486Z,100798.13
2023-02-03T08:28:48.918Z,100800.91
2023-02-03T08:31:15.861Z,100812.16
2023-02-03T08:36:26.626Z,100823.41
2023-02-03T08:38:53.791Z,100825.03
2023-02-03T08:41:20.562Z,100827.16
2023-02-03T08:43:47.159Z,100849.63
2023-02-03T08:46:14.265Z,100842.84
2023-02-03T08:48:41.121Z,100847.41
2023-02-03T08:51:12.927Z,100846.81
2023-02-03T08:53:39.862Z,100831.84
2023-02-03T08:56:09.415Z,100839.44
2023-02-03T08:58:36.719Z,100834.63
2023-02-03T09:01:11.389Z,100821.28
2023-02-03T09:03:38.988Z,100828.06
2023-02-03T09:06:07.125Z,100817.06
2023-02-03T09:08:34.029Z,100825.69
2023-02-03T09:11:00.619Z,100823.56
2023-02-03T09:13:27.304Z,100823.34
2023-02-03T09:15:53.893Z,100797.84
2023-02-03T09:18:20.504Z,100791.41
2023-02-03T09:20:47.068Z,100787.66
2023-02-03T09:23:13.707Z,100803.53
2023-02-03T09:25:40.302Z,100814.78
2023-02-03T09:28:06.995Z,100820.75
2023-02-03T09:30:33.635Z,100831.28
2023-02-03T09:33:00.358Z,100807.66
2023-02-03T09:35:27.325Z,100800.72
2023-02-03T09:37:53.930Z,100818.00
2023-02-03T09:40:34.003Z,100822.91
2023-02-03T09:43:00.606Z,100829.47
2023-02-03T09:45:30.021Z,100851.78
2023-02-03T09:48:11.339Z,100869.56
2023-02-03T09:50:41.200Z,100861.75
2023-02-03T09:53:21.100Z,100860.34
2023-02-03T09:55:48.274Z,100856.25
2023-02-03T09:58:19.557Z,100863.53
2023-02-03T10:01:00.247Z,100852.97
2023-02-03T10:03:56.287Z,100854.31
2023-02-03T10:06:38.026Z,100844.34
2023-02-03T10:09:16.988Z,100840.59
2023-02-03T10:12:14.163Z,100844.91
2023-02-03T10:15:05.529Z,100829.34
2023-02-03T10:17:53.270Z,100830.31
2023-02-03T10:20:26.940Z,100835.22
2023-02-03T10:23:05.483Z,100849.22
2023-02-03T10:25:39.099Z,100853.06
2023-02-03T10:28:20.553Z,100839.47
2023-02-03T10:30:53.638Z,100853.84
2023-02-03T10:33:20.678Z,100862.25
2023-02-03T10:35:53.175Z,100858.75
2023-02-03T10:38:50.259Z,100862.50
2023-02-03T10:41:19.318Z,100860.06
2023-02-03T10:43:47.458Z,100867.31
2023-02-03T10:46:24.069Z,100865.66
2023-02-03T10:48:50.794Z,100853.84
2023-02-03T10:51:26.417Z,100838.19
2023-02-03T10:53:53.780Z,100848.94
2023-02-03T10:56:32.905Z,100833.16
2023-02-03T10:59:00.931Z,100828.00
2023-02-03T11:01:38.898Z,100825.88
2023-02-03T11:04:06.554Z,100812.75
2023-02-03T11:06:34.112Z,100795.41
2023-02-03T11:09:00.729Z,100791.16
2023-02-03T11:11:34.094Z,100803.56
2023-02-03T11:14:03.677Z,100803.06
2023-02-03T11:16:35.221Z,100788.75
2023-02-03T11:19:07.430Z,100782.09
2023-02-03T11:21:43.981Z,100764.94
2023-02-03T11:24:31.774Z,100783.88
2023-02-03T11:27:09.542Z,100763.63
2023-02-03T11:29:40.243Z,100756.28
2023-02-03T11:32:29.761Z,100755.28
2023-02-03T11:35:00.965Z,100758.03
2023-02-03T11:37:38.678Z,100765.88
2023-02-03T11:40:08.136Z,100755.28
2023-02-03T11:42:36.747Z,100754.66
2023-02-03T11:45:18.191Z,100759.38
2023-02-03T11:47:51.655Z,100761.25
2023-02-03T11:50:31.948Z,100773.91
2023-02-03T11:53:24.055Z,100765.03
2023-02-03T11:56:04.564Z,100776.88
2023-02-03T11:58:53.333Z,100768.78
2023-02-03T12:01:43.351Z,100758.56
2023-02-03T12:04:29.541Z,100756.13
2023-02-03T12:07:29.782Z,100749.59
2023-02-03T12:10:02.625Z,100754.91
2023-02-03T12:12:44.459Z,100749.09
2023-02-03T12:15:23.086Z,100729.34
2023-02-03T12:18:01.573Z,100724.06
2023-02-03T12:20:43.270Z,100733.34
2023-02-03T12:23:31.415Z,100743.16
2023-02-03T12:26:18.038Z,100753.97
2023-02-03T12:28:54.597Z,100762.06
2023-02-03T12:31:30.287Z,100749.34
2023-02-03T12:34:05.764Z,100750.66
2023-02-03T12:36:45.819Z,100756.84
2023-02-03T12:39:28.409Z,100753.59
2023-02-03T12:42:14.318Z,100767.81
2023-02-03T12:44:48.185Z,100766.19
2023-02-03T12:47:40.215Z,100757.81
2023-02-03T12:50:17.863Z,100774.25
2023-02-03T12:52:51.583Z,100762.75
2023-02-03T12:55:42.737Z,100766.28
2023-02-03T12:58:12.375Z,100761.94
2023-02-03T13:00:41.984Z,100754.72
2023-02-03T13:03:24.323Z,100753.97
2023-02-03T13:05:50.982Z,100760.22
2023-02-03T13:08:37.804Z,100761.84
2023-02-03T13:11:20.599Z,100777.25
2023-02-03T13:14:03.631Z,100776.69
2023-02-03T13:16:36.070Z,100769.09
2023-02-03T13:19:08.205Z,100777.91
2023-02-03T13:21:34.809Z,100770.91
2023-02-03T13:24:04.405Z,100774.97
2023-02-03T13:26:33.673Z,100764.22
2023-02-03T13:29:05.905Z,100778.00
2023-02-03T13:32:00.408Z,100767.97
2023-02-03T13:34:36.871Z,100760.88
2023-02-03T13:37:21.744Z,100753.28
2023-02-03T13:40:00.177Z,100745.78
2023-02-03T13:42:33.010Z,100730.09
2023-02-03T13:45:14.925Z,100726.78
2023-02-03T13:47:47.206Z,100731.03
2023-02-03T13:50:27.773Z,100697.81
2023-02-03T13:52:57.160Z,100718.00
2023-02-03T13:55:33.045Z,100708.53
2023-02-03T13:58:00.284Z,100717.41
2023-02-03T14:00:44.866Z,100712.63
2023-02-03T14:03:39.450Z,100720.69
2023-02-03T14:06:30.576Z,100725.50
2023-02-03T14:09:00.316Z,100739.84
2023-02-03T14:11:36.123Z,100725.09
2023-02-03T14:14:05.620Z,100729.47
2023-02-03T14:16:39.424Z,100727.38
2023-02-03T14:19:09.512Z,100725.34
2023-02-03T14:21:48.434Z,100724.53
2023-02-03T14:24:16.827Z,100734.56
2023-02-03T14:26:46.013Z,100734.78
2023-02-03T14:29:32.444Z,100753.44
2023-02-03T14:32:10.797Z,100736.75
2023-02-03T14:34:49.980Z,100737.81
2023-02-03T14:37:22.271Z,100737.25
2023-02-03T14:40:01.231Z,100742.03
2023-02-03T14:42:27.735Z,100734.19
2023-02-03T14:45:21.978Z,100730.59
2023-02-03T14:48:16.480Z,100743.09
2023-02-03T14:50:58.964Z,100736.63
2023-02-03T14:53:28.452Z,100742.75
2023-02-03T14:56:10.623Z,100733.28
2023-02-03T14:58:43.053Z,100733.72
2023-02-03T15:01:23.426Z,100740.19
2023-02-03T15:04:13.227Z,100726.16
2023-02-03T15:06:53.773Z,100725.09
2023-02-03T15:09:31.456Z,100730.47
2023-02-03T15:11:58.078Z,100715.94
2023-02-03T15:14:32.726Z,100717.78
2023-02-03T15:17:11.510Z,100735.34
2023-02-03T15:19:42.823Z,100714.38
2023-02-03T15:22:40.262Z,100719.69
2023-02-03T15:25:18.141Z,100731.59
2023-02-03T15:27:44.812Z,100729.47
2023-02-03T15:30:30.603Z,100726.16
2023-02-03T15:33:06.897Z,100740.75
2023-02-03T15:35:36.716Z,100748.25
2023-02-03T15:38:08.403Z,100746.13
2023-02-03T15:40:44.220Z,100753.66
2023-02-03T15:43:16.715Z,100752.81
2023-02-03T15:45:53.770Z,100761.16
2023-02-03T15:48:36.887Z,100761.72
2023-02-03T15:51:10.675Z,100758.47
2023-02-03T15:54:04.598Z,100761.16
2023-02-03T15:56:40.953Z,100766.56
2023-02-03T15:59:21.278Z,100774.63
2023-02-03T16:01:48.299Z,100776.84
2023-02-03T16:04:15.961Z,100782.78
2023-02-03T16:06:48.087Z,100783.84
2023-02-03T16:09:29.456Z,100788.66
2023-02-03T16:12:06.979Z,100798.88
2023-02-03T16:14:36.315Z,100796.19
2023-02-03T17:55:03.801Z,100847.75
2023-02-03T17:57:31.148Z,100844.66
2023-02-03T17:59:59.444Z,100853.25
2023-02-03T18:02:26.145Z,100854.53
2023-02-03T18:04:52.744Z,100856.44
2023-02-03T18:07:19.294Z,100861.47
2023-02-03T18:09:45.891Z,100845.59
2023-02-03T18:12:12.469Z,100853.91
2023-02-03T18:14:39.090Z,100865.75
2023-02-03T18:17:05.697Z,100872.53
2023-02-03T18:19:32.410Z,100869.84
2023-02-03T18:21:59.977Z,100868.78
2023-02-03T18:24:28.714Z,100876.59
2023-02-03T18:26:55.760Z,100874.97
2023-02-03T18:29:24.327Z,100877.66
2023-02-03T18:31:50.966Z,100877.41
2023-02-03T18:34:17.708Z,100870.69
2023-02-03T18:36:44.890Z,100866.94
2023-02-03T18:39:14.362Z,100864.50
2023-02-03T18:41:40.978Z,100864.19
2023-02-03T18:44:07.649Z,100876.09
2023-02-03T18:46:34.428Z,100873.97
2023-02-03T18:49:01.193Z,100884.75
2023-02-03T18:51:27.821Z,100882.03
2023-02-03T18:53:59.507Z,100890.13
2023-02-03T18:56:28.180Z,100882.03
2023-02-03T18:58:55.124Z,100877.72
2023-02-03T19:01:23.972Z,100872.34
2023-02-03T19:03:50.899Z,100878.84
2023-02-03T19:06:18.492Z,100883.78
2023-02-03T19:08:45.709Z,100883.28
2023-02-03T19:11:13.442Z,100882.44
2023-02-03T19:13:40.691Z,100885.72
2023-02-03T19:16:08.530Z,100886.06
2023-02-03T19:18:36.221Z,100884.41
2023-02-03T19:21:03.016Z,100887.03
2023-02-03T19:23:29.977Z,100893.50
2023-02-03T19:25:56.681Z,100884.09
2023-02-03T19:28:30.455Z,100903.28
2023-02-03T19:31:13.510Z,100903.84
2023-02-03T19:33:40.155Z,100909.59
2023-02-03T19:36:08.076Z,100912.84
2023-02-03T19:38:35.347Z,100911.28
2023-02-03T19:41:02.557Z,100911.06
2023-02-03T19:43:31.173Z,100915.38
2023-02-03T19:45:58.504Z,100908.41
2023-02-03T19:48:25.166Z,100919.22
2023-02-03T19:50:51.746Z,100916.50
2023-02-03T19:53:18.866Z,100908.91
2023-02-03T19:55:46.675Z,100910.22
2023-02-03T19:58:14.074Z,100911.22
2023-02-03T20:00:41.403Z,100917.41
2023-02-03T20:03:08.009Z,100923.38
2023-02-03T20:05:36.102Z,100919.88
2023-02-03T20:08:03.895Z,100921.16
2023-02-03T20:10:32.532Z,100921.16
2023-02-03T20:12:59.402Z,100914.97
2023-02-03T20:15:26.923Z,100924.34
2023-02-03T20:17:53.601Z,100931.03
2023-02-03T20:20:20.943Z,100932.09
2023-02-03T20:22:47.962Z,100922.06
2023-02-03T20:25:14.689Z,100932.84
2023-02-03T20:27:41.338Z,100933.94
2023-02-03T20:30:08.879Z,100934.72
2023-02-03T20:32:36.410Z,100950.09
2023-02-03T20:35:04.567Z,100945.00
2023-02-03T20:37:31.122Z,100956.13
2023-02-03T20:39:58.042Z,100949.44
2023-02-03T20:42:24.650Z,100968.06
2023-02-03T20:44:51.208Z,100963.50
2023-02-03T20:47:19.207Z,100952.44
2023-02-03T20:49:47.871Z,100963.22
2023-02-03T20:52:17.574Z,100955.97
2023-02-03T20:54:44.623Z,100969.19
2023-02-03T20:57:16.604Z,100970.03
2023-02-03T20:59:46.671Z,100968.13
2023-02-03T21:02:23.137Z,100961.66
2023-02-03T21:05:00.325Z,100955.22
2023-02-03T21:07:30.641Z,100960.31
2023-02-03T21:10:00.376Z,100954.66
2023-02-03T21:12:30.081Z,100955.13
2023-02-03T21:14:57.181Z,100948.94
2023-02-03T21:17:27.403Z,100962.66
2023-02-03T21:19:55.048Z,100949.75
2023-02-03T21:22:24.774Z,100943.88
2023-02-03T21:24:52.377Z,100949.81
2023-02-03T21:27:32.626Z,100941.16
2023-02-03T21:30:01.597Z,100945.19
2023-02-03T21:32:40.196Z,100939.47
2023-02-03T21:35:39.376Z,100951.31
2023-02-03T21:38:32.178Z,100953.50
2023-02-03T21:41:01.251Z,100948.13
2023-02-03T21:43:30.278Z,100951.88
2023-02-03T21:45:57.054Z,100953.84
2023-02-03T21:48:26.841Z,100954.66
2023-02-03T21:50:55.619Z,100954.41
2023-02-03T21:53:24.601Z,100956.03
2023-02-03T21:55:51.158Z,100959.31
2023-02-03T21:58:26.132Z,100949.94
2023-02-03T22:00:54.254Z,100956.94
2023-02-03T22:03:26.702Z,100946.66
2023-02-03T22:06:16.292Z,100946.31
2023-02-03T22:08:46.157Z,100952.50
2023-02-03T22:11:13.515Z,100947.47
2023-02-03T22:13:40.234Z,100958.25
2023-02-03T22:16:07.469Z,100954.97
2023-02-03T22:18:34.060Z,100967.41
2023-02-03T22:21:01.057Z,100970.34
2023-02-03T22:23:27.732Z,100971.16
2023-02-03T22:25:54.278Z,100976.88
2023-02-03T22:28:20.950Z,100962.00
2023-02-03T22:30:48.223Z,100963.63
2023-02-03T22:33:15.096Z,100962.56
2023-02-03T22:35:41.678Z,100962.84
2023-02-03T22:38:08.244Z,100960.13
2023-02-03T22:40:34.829Z,100960.94
2023-02-03T22:43:01.390Z,100964.47
2023-02-03T22:45:27.953Z,100962.84
2023-02-03T22:47:56.528Z,100968.47
2023-02-03T22:50:34.690Z,100968.69
2023-02-03T22:53:04.155Z,100960.88
2023-02-03T22:55:31.635Z,100963.00
2023-02-03T22:57:59.203Z,100965.91
2023-02-03T23:00:26.565Z,100963.22
2023-02-03T23:02:53.805Z,100958.41
2023-02-03T23:05:21.479Z,100971.66
2023-02-03T23:07:48.763Z,100971.38
2023-02-03T23:10:19.326Z,100969.28
2023-02-03T23:12:46.499Z,100966.09
2023-02-03T23:15:13.761Z,100964.47
2023-02-03T23:17:40.909Z,100969.84
2023-02-03T23:20:09.389Z,100977.69
2023-02-03T23:22:35.957Z,100984.41
2023-02-03T23:25:03.162Z,100990.59
2023-02-03T23:27:29.828Z,101006.28
2023-02-03T23:29:56.443Z,101007.91
2023-02-03T23:32:23.232Z,101001.72
2023-02-03T23:35:08.007Z,101001.72
2023-02-03T23:37:34.654Z,100997.97
2023-02-03T23:40:01.210Z,100994.69
2023-02-03T23:42:27.729Z,100997.38
2023-02-03T23:44:54.382Z,100991.72
2023-02-03T23:47:20.937Z,101000.09
2023-02-03T23:49:47.465Z,100997.38
2023-02-03T23:52:14.126Z,100997.13
2023-02-03T23:54:40.707Z,101003.34
2023-02-03T23:57:07.333Z,101000.97
2023-02-03T23:59:33.913Z,101003.34
